Watertown, Ohio
Current Conditions -  °F | °C
As of 8:53 AM on Monday 20 Oct 2014 (Local Time) from KPKB Reporting Station
Clear Clear  
Wind Chill: 40°   Ceiling: Unl
Heat Index: 44°   Visibility: 10mi
Dew Point: 38°   Wind: 7mph
Humidity: 79%   Direction: 190°S
Pressure: 30.07"   Gusts: NA
Location:  39.47°N, 81.63°W
Report Text: KPKB 201253Z 19006KT 10SM CLR 07/03 A3007 RMK AO2 SLP186 T00670033
Loading
Personal Weather Stations






























Interactive Weather Map
Tropical Storm Tracking
New forecast layout! Learn more

10-Day Weather Forecast

Advertisements
Track Severe Weather on mobile